createdAt,value
2018-12-13T00:01:10.313Z,15.60
2018-12-13T00:06:38.473Z,14.03
2018-12-13T00:12:06.675Z,14.23
2018-12-13T00:17:34.761Z,15.15
2018-12-13T00:23:02.853Z,14.13
2018-12-13T00:28:30.932Z,14.65
2018-12-13T00:33:59.005Z,14.73
2018-12-13T00:39:27.115Z,14.30
2018-12-13T00:44:55.267Z,15.35
2018-12-13T00:50:23.417Z,14.60
2018-12-13T00:55:51.699Z,15.93
2018-12-13T01:01:19.992Z,16.05
2018-12-13T01:06:48.310Z,15.55
2018-12-13T01:12:16.607Z,16.67
2018-12-13T01:17:44.938Z,16.70
2018-12-13T01:23:13.179Z,18.10
2018-12-13T01:28:41.442Z,19.48
2018-12-13T01:34:09.938Z,15.05
2018-12-13T01:39:38.229Z,18.02
2018-12-13T01:45:06.885Z,14.55
2018-12-13T01:50:35.177Z,13.88
2018-12-13T01:56:03.428Z,11.63
2018-12-13T02:01:31.721Z,8.30
2018-12-13T02:06:59.936Z,7.00
2018-12-13T02:12:28.237Z,7.55
2018-12-13T02:17:56.531Z,8.30
2018-12-13T02:23:24.904Z,7.67
2018-12-13T02:28:53.192Z,8.48
2018-12-13T02:34:21.419Z,9.35
2018-12-13T02:39:49.746Z,8.05
2018-12-13T02:45:17.967Z,7.92
2018-12-13T02:50:46.400Z,6.97
2018-12-13T02:56:14.992Z,9.10
2018-12-13T03:01:43.087Z,6.37
2018-12-13T03:07:13.941Z,9.58
2018-12-13T03:12:41.376Z,8.23
2018-12-13T03:18:09.701Z,8.83
2018-12-13T03:23:37.817Z,10.98
2018-12-13T03:29:06.040Z,12.43
2018-12-13T03:34:34.195Z,13.93
2018-12-13T03:40:02.440Z,15.75
2018-12-13T03:45:30.640Z,13.83
2018-12-13T03:50:58.936Z,15.40
2018-12-13T03:56:27.025Z,15.10
2018-12-13T04:01:55.289Z,17.35
2018-12-13T04:07:27.705Z,19.35
2018-12-13T04:12:53.524Z,13.83
2018-12-13T04:18:21.622Z,18.50
2018-12-13T04:23:49.701Z,16.73
2018-12-13T04:29:17.991Z,22.37
2018-12-13T04:34:46.365Z,16.40
2018-12-13T04:40:14.755Z,17.70
2018-12-13T04:45:42.905Z,18.70
2018-12-13T04:51:11.129Z,15.50
2018-12-13T04:56:39.239Z,18.87
2018-12-13T05:02:07.388Z,17.75
2018-12-13T05:07:41.514Z,15.53
2018-12-13T05:13:05.604Z,17.98
2018-12-13T05:18:33.767Z,16.20
2018-12-13T05:24:02.130Z,20.25
2018-12-13T05:29:30.440Z,20.77
2018-12-13T05:34:58.957Z,19.27
2018-12-13T05:40:27.308Z,21.57
2018-12-13T05:45:55.524Z,21.23
2018-12-13T05:51:23.853Z,19.85
2018-12-13T05:56:52.146Z,21.37
2018-12-13T06:02:20.454Z,22.32
2018-12-13T06:07:54.656Z,23.02
2018-12-13T06:13:18.663Z,21.80
2018-12-13T06:18:46.808Z,24.40
2018-12-13T06:24:14.961Z,26.45
2018-12-13T06:29:48.732Z,26.17
2018-12-13T06:35:13.200Z,22.32
2018-12-13T06:40:41.337Z,24.47
2018-12-13T06:46:09.797Z,27.87
2018-12-13T06:51:37.915Z,23.85
2018-12-13T06:57:06.023Z,28.85
2018-12-13T07:02:34.136Z,25.27
2018-12-13T07:08:07.687Z,23.60
2018-12-13T07:13:32.328Z,29.07
2018-12-13T07:19:00.408Z,25.82
2018-12-13T07:24:28.504Z,29.82
2018-12-13T07:29:56.593Z,27.13
2018-12-13T07:35:24.677Z,26.95
2018-12-13T07:40:52.788Z,24.35
2018-12-13T07:46:20.883Z,24.45
2018-12-13T07:51:48.970Z,30.88
2018-12-13T07:57:17.119Z,25.52
2018-12-13T08:02:45.344Z,27.85
2018-12-13T08:08:13.444Z,27.02
2018-12-13T08:13:41.538Z,23.30
2018-12-13T08:19:09.632Z,21.00
2018-12-13T08:24:37.780Z,23.67
2018-12-13T08:30:06.988Z,25.30
2018-12-13T08:35:35.080Z,25.68
2018-12-13T08:41:03.205Z,23.57
2018-12-13T08:46:36.526Z,24.75
2018-12-13T08:52:01.396Z,24.45
2018-12-13T08:57:29.572Z,24.37
2018-12-13T09:02:57.640Z,24.25
2018-12-13T09:08:25.712Z,21.27
2018-12-13T09:13:53.797Z,22.65
2018-12-13T09:19:21.895Z,23.22
2018-12-13T09:24:51.003Z,22.50
2018-12-13T09:30:19.097Z,21.93
2018-12-13T09:35:47.184Z,28.30
2018-12-13T09:41:15.274Z,24.67
2018-12-13T09:46:44.364Z,24.15
2018-12-13T09:52:12.474Z,24.35
2018-12-13T09:57:40.839Z,19.12
2018-12-13T10:03:09.210Z,20.77
2018-12-13T10:08:37.497Z,29.75
2018-12-13T10:14:05.928Z,24.67
2018-12-13T10:19:34.153Z,21.97
2018-12-13T10:25:02.412Z,21.82
2018-12-13T10:30:30.697Z,21.30
2018-12-13T10:35:58.965Z,17.00
2018-12-13T10:41:27.610Z,26.65
2018-12-13T10:46:55.994Z,20.68
2018-12-13T10:52:24.291Z,16.95
2018-12-13T10:57:52.550Z,14.98
2018-12-13T11:03:26.377Z,17.35
2018-12-13T11:08:59.357Z,17.20
2018-12-13T11:14:24.556Z,20.50
2018-12-13T11:19:52.641Z,18.70
2018-12-13T11:25:20.715Z,13.90
2018-12-13T11:30:48.823Z,21.77
2018-12-13T11:36:16.914Z,17.07
2018-12-13T11:41:45.051Z,12.85
2018-12-13T11:47:13.262Z,16.35
2018-12-13T11:52:42.396Z,13.55
2018-12-13T11:58:10.558Z,10.95
2018-12-13T12:03:38.866Z,13.90
2018-12-13T12:09:12.152Z,16.17
2018-12-13T12:14:37.197Z,13.78
2018-12-13T12:20:07.179Z,23.35
2018-12-13T12:25:35.273Z,13.80
2018-12-13T12:31:03.348Z,14.33
2018-12-13T12:36:32.093Z,15.20
2018-12-13T12:42:00.343Z,16.20
2018-12-13T12:47:28.622Z,18.23
2018-12-13T12:52:56.704Z,18.17
2018-12-13T12:58:24.844Z,13.25
2018-12-13T13:03:53.031Z,13.98
2018-12-13T13:09:24.936Z,18.10
2018-12-13T13:14:51.195Z,14.03
2018-12-13T13:20:19.277Z,19.17
2018-12-13T13:25:47.374Z,21.15
2018-12-13T13:31:15.564Z,18.70
2018-12-13T13:36:43.696Z,17.20
2018-12-13T13:42:11.798Z,21.95
2018-12-13T13:47:40.098Z,27.77
2018-12-13T13:53:08.302Z,21.62
2018-12-13T13:58:36.392Z,17.90
2018-12-13T14:04:04.495Z,25.02
2018-12-13T14:09:37.959Z,21.68
2018-12-13T14:15:03.414Z,20.60
2018-12-13T14:20:31.722Z,21.27
2018-12-13T14:25:59.990Z,27.27
2018-12-13T14:31:28.256Z,25.15
2018-12-13T14:36:56.538Z,22.75
2018-12-13T14:42:24.931Z,23.77
2018-12-13T14:47:53.045Z,24.32
2018-12-13T14:53:21.126Z,21.93
2018-12-13T14:58:49.323Z,23.42
2018-12-13T15:04:17.639Z,27.07
2018-12-13T15:09:50.881Z,23.98
2018-12-13T15:15:16.082Z,26.33
2018-12-13T15:20:44.173Z,25.00
2018-12-13T15:26:12.916Z,24.52
2018-12-13T15:31:41.049Z,30.02
2018-12-13T15:37:09.204Z,23.70
2018-12-13T15:42:37.338Z,23.57
2018-12-13T15:48:05.463Z,26.60
2018-12-13T15:53:33.627Z,26.37
2018-12-13T15:59:01.749Z,23.95
2018-12-13T16:04:29.876Z,24.87
2018-12-13T16:10:03.844Z,23.10
2018-12-13T16:15:28.994Z,25.55
2018-12-13T16:20:57.138Z,22.15
2018-12-13T16:26:25.232Z,26.05
2018-12-13T16:31:53.681Z,22.37
2018-12-13T16:37:21.867Z,25.68
2018-12-13T16:42:49.982Z,27.27
2018-12-13T16:48:18.207Z,23.45
2018-12-13T16:53:46.319Z,24.10
2018-12-13T16:59:14.552Z,29.63
2018-12-13T17:04:42.778Z,28.62
2018-12-13T17:10:16.590Z,23.67
2018-12-13T17:15:41.348Z,23.77
2018-12-13T17:21:09.479Z,26.30
2018-12-13T17:26:37.623Z,27.87
2018-12-13T17:32:05.712Z,32.23
2018-12-13T17:37:33.807Z,26.70
2018-12-13T17:43:01.900Z,26.37
2018-12-13T17:48:29.992Z,27.05
2018-12-13T17:53:58.101Z,24.37
2018-12-13T17:59:26.387Z,27.00
2018-12-13T18:04:54.637Z,24.65
2018-12-13T18:10:22.791Z,28.50
2018-12-13T18:15:54.947Z,27.27
2018-12-13T18:21:23.035Z,24.77
2018-12-13T18:26:51.141Z,32.08
2018-12-13T18:32:19.375Z,22.42
2018-12-13T18:37:47.543Z,23.60
2018-12-13T18:43:15.824Z,24.12
2018-12-13T18:48:44.088Z,27.00
2018-12-13T18:54:12.359Z,28.57
2018-12-13T18:59:41.016Z,28.98
2018-12-13T19:05:09.358Z,28.77
2018-12-13T19:10:41.867Z,29.85
2018-12-13T19:16:07.941Z,30.77
2018-12-13T19:21:36.129Z,30.05
2018-12-13T19:27:04.360Z,32.80
2018-12-13T19:32:32.705Z,30.45
2018-12-13T19:38:00.818Z,34.23
2018-12-13T19:43:28.926Z,32.63
2018-12-13T19:48:57.159Z,26.97
2018-12-13T19:54:25.280Z,28.83
2018-12-13T19:59:53.461Z,20.92
2018-12-13T20:05:21.697Z,31.17
2018-12-13T20:10:54.663Z,22.30
2018-12-13T20:16:19.923Z,24.05
2018-12-13T20:21:48.044Z,26.60
2018-12-13T20:27:16.417Z,29.18
2018-12-13T20:32:44.605Z,25.08
2018-12-13T20:38:12.691Z,26.23
2018-12-13T20:43:41.121Z,24.85
2018-12-13T20:49:09.650Z,23.35
2018-12-13T20:54:38.037Z,26.93
2018-12-13T21:00:09.578Z,26.80
2018-12-13T21:05:38.304Z,23.75
2018-12-13T21:11:07.598Z,29.80
2018-12-13T21:16:36.057Z,27.32
2018-12-13T21:22:04.208Z,30.68
2018-12-13T21:27:32.400Z,39.53
2018-12-13T21:33:00.711Z,82.70
2018-12-13T21:38:29.001Z,28.47
2018-12-13T21:43:57.386Z,21.77
2018-12-13T21:49:25.582Z,28.35
2018-12-13T21:54:53.820Z,29.80
2018-12-13T22:00:21.911Z,31.87
2018-12-13T22:05:50.033Z,28.80
2018-12-13T22:11:20.002Z,29.20
2018-12-13T22:16:48.350Z,29.87
2018-12-13T22:22:16.514Z,25.60
2018-12-13T22:27:44.742Z,29.60
2018-12-13T22:33:13.019Z,30.88
2018-12-13T22:38:41.314Z,26.70
2018-12-13T22:44:09.744Z,32.10
2018-12-13T22:49:37.901Z,28.83
2018-12-13T22:55:06.175Z,27.37
2018-12-13T23:00:34.515Z,25.92
2018-12-13T23:06:02.718Z,31.50
2018-12-13T23:11:32.817Z,30.65
2018-12-13T23:17:01.031Z,31.85
2018-12-13T23:22:29.148Z,30.75
2018-12-13T23:27:57.259Z,30.27
2018-12-13T23:33:25.351Z,30.35
2018-12-13T23:38:53.435Z,29.07
2018-12-13T23:44:21.576Z,27.85
2018-12-13T23:49:49.729Z,23.52
2018-12-13T23:55:17.892Z,29.15
